Time;durP1;ratioP1;P1;durP2;ratioP2;P2;SDS_P1;SDS_P2;PMS_P1;PMS_P2;Temp;Humidity;BMP_temperature;BMP_pressure;BME280_temperature;BME280_humidity;BME280_pressure;Samples;Min_cycle;Max_cycle;Signal;HPM_P1;HPM_P2
2022/10/13 00:02:12;;;;;;;3.22;2.22;;;12.30;75.40;;;;;;4998101;28;20034;-68
2022/10/13 00:04:37;;;;;;;3.80;2.85;;;12.30;75.30;;;;;;4988919;28;20034;-68
2022/10/13 00:07:03;;;;;;;3.00;2.15;;;12.30;75.40;;;;;;4991297;28;20057;-68
2022/10/13 00:09:29;;;;;;;4.45;2.95;;;12.30;75.40;;;;;;4991077;28;20029;-68
2022/10/13 00:11:57;;;;;;;6.75;2.45;;;12.30;75.50;;;;;;4990976;28;20045;-68
2022/10/13 00:14:23;;;;;;;3.65;2.55;;;12.30;75.50;;;;;;4991278;28;20043;-68
2022/10/13 00:16:49;;;;;;;3.15;2.10;;;12.30;75.70;;;;;;4990291;28;20038;-68
2022/10/13 00:19:14;;;;;;;3.85;2.75;;;12.30;75.80;;;;;;4990856;28;20406;-69
2022/10/13 00:21:40;;;;;;;6.97;3.13;;;12.20;75.70;;;;;;4991832;28;20386;-69
2022/10/13 00:24:09;;;;;;;4.00;2.95;;;12.30;75.80;;;;;;5011613;28;20519;-69
2022/10/13 00:26:35;;;;;;;8.23;3.30;;;12.30;75.90;;;;;;5010994;28;20021;-68
2022/10/13 00:29:01;;;;;;;2.40;2.20;;;12.20;75.90;;;;;;5010971;28;20065;-68
2022/10/13 00:31:29;;;;;;;5.50;2.78;;;12.20;75.90;;;;;;4992832;28;20108;-68
2022/10/13 00:33:57;;;;;;;5.00;3.03;;;12.20;75.90;;;;;;5013216;28;20361;-68
2022/10/13 00:36:23;;;;;;;3.40;2.25;;;12.20;76.00;;;;;;5009644;28;20041;-69
2022/10/13 00:38:50;;;;;;;3.63;2.63;;;12.20;76.10;;;;;;5009773;28;20041;-68
2022/10/13 00:41:16;;;;;;;5.47;3.05;;;12.20;76.20;;;;;;5009245;28;20392;-68
2022/10/13 00:44:02;;;;;;;5.53;2.65;;;12.20;76.40;;;;;;5009772;28;20032;-68
2022/10/13 00:46:35;;;;;;;3.97;3.03;;;12.20;76.30;;;;;;5010346;28;20029;-68
2022/10/13 00:49:10;;;;;;;4.30;2.70;;;12.20;76.50;;;;;;5006882;28;20385;-69
2022/10/13 00:51:41;;;;;;;3.58;2.22;;;12.20;76.60;;;;;;5009511;28;20213;-69
2022/10/13 00:54:10;;;;;;;5.78;3.25;;;12.20;76.60;;;;;;5009585;28;20021;-69
2022/10/13 00:56:37;;;;;;;4.93;2.83;;;12.30;76.50;;;;;;4992768;28;20040;-69
2022/10/13 00:59:08;;;;;;;3.70;2.70;;;12.40;76.60;;;;;;5009351;28;20044;-70
2022/10/13 01:01:34;;;;;;;6.35;2.72;;;12.40;76.70;;;;;;5002338;28;20476;-67
2022/10/13 01:04:00;;;;;;;6.05;2.80;;;12.40;76.70;;;;;;5007473;28;20037;-68
2022/10/13 01:06:26;;;;;;;4.90;3.28;;;12.40;76.70;;;;;;4992865;28;20045;-68
2022/10/13 01:08:53;;;;;;;7.22;3.08;;;12.40;76.60;;;;;;4991122;28;20042;-68
2022/10/13 01:11:19;;;;;;;4.03;2.40;;;12.50;76.70;;;;;;4975561;28;20380;-68
2022/10/13 01:13:50;;;;;;;3.55;2.47;;;12.40;76.80;;;;;;5009523;28;20096;-68
2022/10/13 01:16:27;;;;;;;3.67;2.45;;;12.50;77.00;;;;;;5009324;28;20069;-70
2022/10/13 01:19:28;;;;;;;3.50;2.13;;;12.40;77.10;;;;;;5008029;28;20354;-70
2022/10/13 01:22:29;;;;;;;5.63;2.90;;;12.40;77.10;;;;;;4926437;29;20199;-68
2022/10/13 01:25:06;;;;;;;2.58;2.30;;;12.50;77.00;;;;;;5008866;28;20056;-68
2022/10/13 01:28:11;;;;;;;5.63;2.88;;;12.50;77.20;;;;;;5010415;28;20101;-68
2022/10/13 01:30:49;;;;;;;4.57;2.85;;;12.50;77.20;;;;;;5000456;28;20034;-68
2022/10/13 01:33:30;;;;;;;3.88;2.80;;;12.50;77.40;;;;;;5008255;28;20045;-68
2022/10/13 01:36:16;;;;;;;2.92;2.30;;;12.50;77.30;;;;;;5001785;28;20029;-68
2022/10/13 01:39:25;;;;;;;4.38;2.28;;;12.50;77.30;;;;;;5006650;28;20045;-68
2022/10/13 01:41:57;;;;;;;6.15;2.90;;;12.60;77.30;;;;;;5009095;28;20049;-69
2022/10/13 01:44:29;;;;;;;3.33;2.90;;;12.50;77.50;;;;;;5008715;28;20026;-69
2022/10/13 01:46:55;;;;;;;;;;;12.50;77.60;;;;;;5013445;28;20477;-69
2022/10/13 01:49:30;;;;;;;6.35;3.05;;;12.50;77.80;;;;;;5009091;28;19910;-69
2022/10/13 01:52:01;;;;;;;4.30;3.00;;;12.50;77.90;;;;;;4991521;28;20100;-69
2022/10/13 01:54:27;;;;;;;6.10;3.10;;;12.50;77.80;;;;;;5003904;28;20033;-69
2022/10/13 01:56:54;;;;;;;4.03;2.90;;;12.50;77.80;;;;;;4992451;28;20481;-69
2022/10/13 01:59:21;;;;;;;3.17;2.20;;;12.60;77.90;;;;;;5007165;28;20038;-70
2022/10/13 02:02:08;;;;;;;5.15;2.67;;;12.60;77.90;;;;;;4991160;28;20026;-67
2022/10/13 02:05:00;;;;;;;4.00;2.70;;;12.60;77.90;;;;;;5007798;28;20037;-68
2022/10/13 02:07:45;;;;;;;3.83;2.85;;;12.60;78.00;;;;;;5008909;28;20029;-70
2022/10/13 02:10:23;;;;;;;3.53;2.42;;;12.60;78.00;;;;;;5002410;28;20021;-71
2022/10/13 02:13:11;;;;;;;2.83;2.60;;;12.60;78.10;;;;;;4991885;28;20058;-69
2022/10/13 02:15:45;;;;;;;3.80;2.97;;;12.60;78.20;;;;;;5008607;28;20054;-69
2022/10/13 02:18:13;;;;;;;8.00;3.13;;;12.70;78.30;;;;;;5009443;28;20065;-69
2022/10/13 02:20:43;;;;;;;3.80;2.45;;;12.70;78.30;;;;;;5008188;28;20034;-68
2022/10/13 02:23:16;;;;;;;3.13;2.58;;;12.70;78.30;;;;;;4991061;28;20049;-68
2022/10/13 02:25:42;;;;;;;5.45;2.63;;;12.70;78.30;;;;;;4991285;28;20425;-68
2022/10/13 02:28:09;;;;;;;5.03;2.58;;;12.70;78.30;;;;;;4991831;28;20030;-67
2022/10/13 02:30:38;;;;;;;5.07;2.63;;;12.80;78.40;;;;;;5010677;28;20034;-68
2022/10/13 02:33:04;;;;;;;6.20;3.10;;;12.80;78.40;;;;;;5012939;28;20022;-67
2022/10/13 02:35:31;;;;;;;3.58;2.80;;;12.80;78.40;;;;;;5012495;28;20052;-68
2022/10/13 02:37:57;;;;;;;5.88;2.83;;;12.80;78.40;;;;;;5013234;28;20042;-68
2022/10/13 02:40:23;;;;;;;3.20;2.13;;;12.80;78.40;;;;;;5011240;28;20044;-68
2022/10/13 02:42:49;;;;;;;2.05;1.83;;;12.80;78.30;;;;;;4993164;28;20427;-66
2022/10/13 02:45:15;;;;;;;3.55;2.70;;;12.80;78.30;;;;;;5011390;28;20072;-67
2022/10/13 02:47:40;;;;;;;3.97;2.97;;;12.80;78.40;;;;;;5013070;28;20088;-68
2022/10/13 02:50:07;;;;;;;3.30;2.60;;;12.80;78.30;;;;;;5011375;28;20113;-68
2022/10/13 02:52:32;;;;;;;17.58;3.75;;;12.80;78.40;;;;;;5012749;28;20096;-68
2022/10/13 02:54:58;;;;;;;7.32;2.97;;;12.80;78.40;;;;;;4995322;28;20026;-67
2022/10/13 02:57:24;;;;;;;6.43;3.13;;;12.80;78.50;;;;;;5010890;28;20030;-68
2022/10/13 02:59:50;;;;;;;9.00;2.90;;;12.80;78.70;;;;;;5012724;28;20041;-68
2022/10/13 03:02:17;;;;;;;4.28;3.33;;;12.80;78.70;;;;;;4993585;28;20036;-68
2022/10/13 03:04:42;;;;;;;6.13;2.95;;;12.80;78.70;;;;;;5013097;28;20030;-68
2022/10/13 03:07:09;;;;;;;4.38;2.55;;;12.70;78.70;;;;;;4993801;28;20036;-68
2022/10/13 03:09:35;;;;;;;4.78;2.60;;;12.70;78.80;;;;;;4995702;28;20053;-67
2022/10/13 03:12:00;;;;;;;4.57;2.63;;;12.70;79.00;;;;;;5011031;28;20030;-68
2022/10/13 03:14:26;;;;;;;5.43;3.25;;;12.70;79.50;;;;;;5011827;28;20461;-67
2022/10/13 03:16:52;;;;;;;3.95;2.80;;;12.70;78.90;;;;;;5013431;28;20500;-68
2022/10/13 03:19:17;;;;;;;2.40;2.20;;;12.70;79.00;;;;;;5001278;28;20046;-68
2022/10/13 03:21:43;;;;;;;3.10;2.60;;;12.70;79.00;;;;;;4993323;28;20038;-67
2022/10/13 03:24:09;;;;;;;2.45;1.88;;;12.80;79.00;;;;;;4978322;28;20432;-68
2022/10/13 03:26:34;;;;;;;4.68;2.95;;;12.80;78.90;;;;;;5011593;28;20030;-68
2022/10/13 03:29:00;;;;;;;3.28;2.60;;;12.80;78.90;;;;;;4994976;28;20156;-69
2022/10/13 03:31:27;;;;;;;4.47;2.65;;;12.80;78.90;;;;;;5009192;28;20489;-68
2022/10/13 03:33:53;;;;;;;4.75;2.95;;;12.80;78.90;;;;;;5011773;28;20022;-68
2022/10/13 03:36:18;;;;;;;3.47;2.63;;;12.70;78.90;;;;;;4992013;28;20098;-67
2022/10/13 03:38:44;;;;;;;4.00;2.78;;;12.70;79.00;;;;;;5010944;28;20037;-68
2022/10/13 03:41:16;;;;;;;5.40;3.33;;;12.70;79.00;;;;;;5009535;28;20137;-68
2022/10/13 03:43:43;;;;;;;3.95;2.83;;;12.70;79.00;;;;;;5011729;28;20111;-68
2022/10/13 03:46:11;;;;;;;4.55;2.67;;;12.70;79.00;;;;;;4995152;28;20026;-68
2022/10/13 03:48:38;;;;;;;5.72;2.58;;;12.70;79.00;;;;;;5006715;28;20041;-67
2022/10/13 03:51:08;;;;;;;3.15;2.47;;;12.80;79.00;;;;;;5010560;28;20030;-68
2022/10/13 03:53:34;;;;;;;5.35;2.95;;;12.70;78.90;;;;;;5006547;28;20026;-68
2022/10/13 03:56:01;;;;;;;3.30;2.85;;;12.70;79.00;;;;;;5008782;28;21053;-67
2022/10/13 03:58:29;;;;;;;4.70;3.30;;;12.70;79.10;;;;;;4992071;28;20036;-68
2022/10/13 04:00:56;;;;;;;8.13;3.38;;;12.70;79.20;;;;;;5011781;28;20064;-68
2022/10/13 04:03:23;;;;;;;2.45;2.20;;;12.70;79.30;;;;;;4991816;28;20092;-68
2022/10/13 04:05:49;;;;;;;4.07;2.80;;;12.70;79.30;;;;;;5010945;28;20029;-68
2022/10/13 04:08:14;;;;;;;3.55;2.55;;;12.70;79.20;;;;;;4991055;28;20490;-68
2022/10/13 04:10:41;;;;;;;4.85;2.88;;;12.80;79.20;;;;;;4994130;28;20108;-68
2022/10/13 04:13:07;;;;;;;5.82;3.17;;;12.80;79.20;;;;;;5007686;28;20116;-69
2022/10/13 04:15:37;;;;;;;2.75;2.03;;;12.80;79.20;;;;;;5011275;28;20058;-68
2022/10/13 04:18:04;;;;;;;8.43;3.00;;;12.80;79.30;;;;;;5009386;28;20034;-68
2022/10/13 04:20:29;;;;;;;8.35;2.45;;;12.80;79.30;;;;;;5011278;28;20548;-68
2022/10/13 04:22:55;;;;;;;3.30;2.35;;;12.70;79.30;;;;;;5007027;28;20061;-68
2022/10/13 04:25:21;;;;;;;3.63;2.95;;;12.70;79.40;;;;;;4993681;28;20121;-67
2022/10/13 04:27:47;;;;;;;3.22;2.60;;;12.70;79.40;;;;;;5012538;28;20456;-68
2022/10/13 04:30:13;;;;;;;7.78;3.83;;;12.80;79.60;;;;;;5009209;28;20489;-68
2022/10/13 04:32:39;;;;;;;3.67;2.58;;;12.80;79.60;;;;;;5008108;28;20029;-68
2022/10/13 04:35:05;;;;;;;3.92;2.90;;;12.80;79.60;;;;;;5010209;28;20026;-68
2022/10/13 04:37:30;;;;;;;4.43;3.05;;;12.80;79.60;;;;;;5005051;28;20038;-68
2022/10/13 04:39:56;;;;;;;5.72;2.45;;;12.80;79.60;;;;;;4992495;28;20091;-68
2022/10/13 04:42:22;;;;;;;3.85;2.22;;;12.80;79.60;;;;;;5007520;28;20041;-68
2022/10/13 04:44:51;;;;;;;5.82;3.15;;;12.80;79.70;;;;;;5008606;28;20042;-68
2022/10/13 04:47:16;;;;;;;7.03;2.92;;;12.90;79.80;;;;;;4992134;28;20033;-69
2022/10/13 04:49:42;;;;;;;3.95;2.85;;;12.90;79.80;;;;;;4991112;28;20149;-70
2022/10/13 04:52:07;;;;;;;2.75;2.40;;;12.90;79.80;;;;;;5009347;28;20038;-69
2022/10/13 04:54:33;;;;;;;6.97;2.78;;;12.80;79.80;;;;;;5006509;28;20026;-68
2022/10/13 04:56:59;;;;;;;5.22;2.35;;;12.80;79.80;;;;;;4990479;28;20040;-69
2022/10/13 04:59:24;;;;;;;6.65;3.00;;;12.90;79.90;;;;;;4988751;28;20033;-69
2022/10/13 05:01:50;;;;;;;4.53;3.15;;;12.90;79.90;;;;;;4989272;28;20065;-69
2022/10/13 05:04:16;;;;;;;2.53;2.33;;;12.90;79.90;;;;;;5003628;28;20038;-70
2022/10/13 05:06:42;;;;;;;4.85;2.92;;;12.90;79.90;;;;;;5005020;28;20058;-68
2022/10/13 05:09:14;;;;;;;5.60;3.40;;;12.90;79.90;;;;;;5008342;28;20050;-68
2022/10/13 05:11:40;;;;;;;6.03;3.30;;;12.90;79.90;;;;;;5007116;28;20038;-68
2022/10/13 05:14:05;;;;;;;3.00;1.73;;;12.90;79.90;;;;;;4973792;28;20041;-69
2022/10/13 05:16:31;;;;;;;2.60;2.20;;;12.90;79.90;;;;;;5008990;28;20489;-69
2022/10/13 05:18:57;;;;;;;5.75;2.45;;;12.90;79.90;;;;;;5008354;28;20034;-68
2022/10/13 05:21:26;;;;;;;3.65;2.70;;;12.90;79.90;;;;;;4996385;28;20038;-68
2022/10/13 05:23:55;;;;;;;4.43;2.22;;;12.90;79.90;;;;;;5004805;28;20054;-68
2022/10/13 05:26:27;;;;;;;5.75;3.35;;;12.90;79.90;;;;;;5007995;28;20022;-68
2022/10/13 05:28:57;;;;;;;;;;;12.90;80.00;;;;;;5005562;28;20040;-68
2022/10/13 05:31:25;;;;;;;7.88;2.30;;;12.90;80.10;;;;;;4991060;28;19960;-69
2022/10/13 05:33:51;;;;;;;5.05;2.47;;;12.90;80.20;;;;;;5007550;28;20088;-69
2022/10/13 05:36:34;;;;;;;3.78;2.10;;;12.90;80.10;;;;;;5005081;28;20163;-68
2022/10/13 05:39:06;;;;;;;5.25;2.17;;;13.00;79.90;;;;;;5001383;28;20145;-69
2022/10/13 05:41:32;;;;;;;2.75;2.13;;;13.10;80.00;;;;;;5010122;28;20030;-69
2022/10/13 05:44:05;;;;;;;4.38;2.88;;;13.10;79.90;;;;;;4990861;28;20032;-69
2022/10/13 05:46:31;;;;;;;3.42;2.25;;;13.20;79.90;;;;;;5009110;28;20030;-69
2022/10/13 05:48:57;;;;;;;3.15;2.20;;;13.20;79.80;;;;;;4990442;28;20457;-69
2022/10/13 05:51:44;;;;;;;3.65;2.35;;;13.30;79.80;;;;;;5007657;28;20033;-69
2022/10/13 05:54:23;;;;;;;5.68;2.55;;;13.30;79.60;;;;;;5006879;28;20040;-68
2022/10/13 05:57:00;;;;;;;3.08;2.20;;;13.30;79.70;;;;;;5010807;28;20025;-69
2022/10/13 05:59:29;;;;;;;4.00;2.53;;;13.40;79.70;;;;;;5008184;28;20042;-69
2022/10/13 06:01:55;;;;;;;4.75;2.97;;;13.40;79.80;;;;;;5009142;28;20038;-69
2022/10/13 06:04:30;;;;;;;5.38;2.72;;;13.40;79.90;;;;;;5011107;28;20375;-69
2022/10/13 06:06:56;;;;;;;7.20;3.05;;;13.40;80.00;;;;;;5004916;28;20030;-69
2022/10/13 06:09:21;;;;;;;3.88;2.88;;;13.40;80.00;;;;;;5009836;28;20437;-69
2022/10/13 06:11:47;;;;;;;5.72;3.33;;;13.40;79.90;;;;;;5013008;28;20020;-69
2022/10/13 06:14:13;;;;;;;4.55;3.25;;;13.50;79.90;;;;;;5012904;28;20387;-69
2022/10/13 06:16:39;;;;;;;2.28;1.73;;;13.50;79.90;;;;;;5013554;28;20490;-69
2022/10/13 06:19:05;;;;;;;6.00;3.40;;;13.50;79.80;;;;;;4994862;28;20045;-69
2022/10/13 06:21:33;;;;;;;3.40;2.30;;;13.60;79.80;;;;;;5010952;28;20119;-69
2022/10/13 06:24:00;;;;;;;4.07;2.72;;;13.60;79.80;;;;;;5012510;28;20644;-69
2022/10/13 06:26:25;;;;;;;2.92;2.70;;;13.60;79.90;;;;;;5011260;28;20105;-68
2022/10/13 06:28:51;;;;;;;4.63;2.25;;;13.60;80.00;;;;;;5001328;28;20113;-68
2022/10/13 06:31:17;;;;;;;3.33;2.33;;;13.60;80.00;;;;;;4989413;28;20034;-68
2022/10/13 06:33:43;;;;;;;3.13;2.85;;;13.60;80.00;;;;;;5013665;28;20033;-68
2022/10/13 06:36:09;;;;;;;2.90;2.28;;;13.60;80.10;;;;;;5010229;28;20120;-68
2022/10/13 06:38:35;;;;;;;4.38;2.28;;;13.60;80.70;;;;;;5011681;28;20122;-68
2022/10/13 06:41:02;;;;;;;3.17;2.42;;;13.60;80.10;;;;;;5003914;28;20037;-69
2022/10/13 06:43:28;;;;;;;6.03;3.45;;;13.70;80.30;;;;;;4991659;28;20088;-68
2022/10/13 06:45:58;;;;;;;5.20;2.72;;;13.70;80.20;;;;;;5003029;28;20076;-68
2022/10/13 06:48:24;;;;;;;3.65;2.30;;;13.70;80.00;;;;;;5008217;28;20121;-67
2022/10/13 06:50:50;;;;;;;6.72;2.70;;;13.80;80.10;;;;;;5004942;28;20033;-68
2022/10/13 06:53:15;;;;;;;9.43;3.67;;;13.80;80.00;;;;;;4991301;28;20581;-68
2022/10/13 06:55:42;;;;;;;5.18;2.78;;;13.80;80.00;;;;;;5010369;28;20496;-68
2022/10/13 06:58:09;;;;;;;4.38;2.72;;;13.80;80.00;;;;;;4993871;28;20041;-67
2022/10/13 07:00:35;;;;;;;7.25;2.17;;;13.90;80.00;;;;;;5009232;28;20441;-67
2022/10/13 07:03:01;;;;;;;8.23;3.22;;;13.90;79.90;;;;;;5001855;28;20133;-68
2022/10/13 07:05:26;;;;;;;4.20;2.83;;;13.90;79.80;;;;;;5012495;28;20036;-68
2022/10/13 07:07:52;;;;;;;5.13;2.35;;;13.90;79.70;;;;;;5000536;28;20038;-69
2022/10/13 07:10:19;;;;;;;5.18;2.42;;;14.00;79.70;;;;;;4993661;28;20054;-69
2022/10/13 07:12:44;;;;;;;5.07;2.70;;;14.00;79.70;;;;;;4995637;28;20069;-69
2022/10/13 07:15:10;;;;;;;4.00;2.83;;;14.00;79.70;;;;;;4994144;28;20045;-69
2022/10/13 07:17:36;;;;;;;9.93;2.35;;;14.00;79.60;;;;;;5014345;28;20038;-69
2022/10/13 07:20:03;;;;;;;4.43;2.20;;;14.00;79.60;;;;;;4998076;28;20040;-67
2022/10/13 07:22:29;;;;;;;15.57;2.25;;;14.00;79.50;;;;;;4991112;28;20081;-67
2022/10/13 07:24:55;;;;;;;4.22;2.67;;;14.00;79.50;;;;;;4992796;28;20042;-68
2022/10/13 07:27:21;;;;;;;5.97;3.45;;;14.10;79.50;;;;;;4997947;28;20040;-68
2022/10/13 07:29:46;;;;;;;2.90;2.28;;;14.10;79.50;;;;;;4995239;28;20039;-69
2022/10/13 07:32:12;;;;;;;4.57;2.97;;;14.10;79.30;;;;;;4990392;28;20030;-69
2022/10/13 07:34:38;;;;;;;7.18;3.85;;;14.10;79.40;;;;;;4992756;28;20704;-69
2022/10/13 07:37:03;;;;;;;6.40;3.72;;;14.10;79.70;;;;;;4998301;28;20126;-69
2022/10/13 07:39:29;;;;;;;7.22;3.10;;;14.10;79.50;;;;;;4990862;28;20046;-69
2022/10/13 07:41:55;;;;;;;6.35;3.42;;;14.10;79.50;;;;;;4992217;28;20042;-69
2022/10/13 07:44:21;;;;;;;3.15;2.25;;;14.20;79.90;;;;;;4988535;28;20126;-69
2022/10/13 07:46:47;;;;;;;2.83;2.53;;;14.20;79.90;;;;;;4990476;28;20058;-69
2022/10/13 07:49:13;;;;;;;3.85;2.70;;;14.20;79.80;;;;;;4991716;28;20057;-69
2022/10/13 07:51:39;;;;;;;6.65;2.92;;;14.20;79.70;;;;;;4994158;28;20045;-69
2022/10/13 07:54:04;;;;;;;4.47;2.95;;;14.20;79.80;;;;;;5003724;28;20050;-69
2022/10/13 07:56:30;;;;;;;8.88;5.03;;;14.20;79.90;;;;;;4992255;28;20078;-68
2022/10/13 07:58:56;;;;;;;7.15;3.83;;;14.20;80.40;;;;;;4992736;28;20045;-68
2022/10/13 08:01:22;;;;;;;7.97;3.95;;;14.20;80.30;;;;;;4991985;28;20030;-68
2022/10/13 08:03:48;;;;;;;7.95;4.00;;;14.20;80.40;;;;;;4994763;28;20500;-66
2022/10/13 08:06:13;;;;;;;5.40;3.17;;;14.20;80.50;;;;;;4995045;28;20513;-66
2022/10/13 08:08:39;;;;;;;8.27;3.45;;;14.30;80.50;;;;;;4998988;28;20445;-67
2022/10/13 08:11:11;;;;;;;4.85;2.65;;;14.30;80.30;;;;;;4992699;28;20478;-69
2022/10/13 08:13:37;;;;;;;4.95;2.90;;;14.30;80.30;;;;;;4992851;28;20022;-67
2022/10/13 08:16:03;;;;;;;5.60;2.75;;;14.40;80.30;;;;;;4992484;28;20402;-70
2022/10/13 08:18:29;;;;;;;5.82;3.35;;;14.40;80.10;;;;;;4986835;28;20164;-67
2022/10/13 08:20:59;;;;;;;4.30;3.13;;;14.50;79.90;;;;;;4990788;28;20490;-69
2022/10/13 08:23:25;;;;;;;8.07;3.60;;;14.60;79.90;;;;;;5002686;28;20049;-67
2022/10/13 08:25:51;;;;;;;5.15;2.88;;;14.60;79.80;;;;;;5011161;28;20496;-67
2022/10/13 08:28:25;;;;;;;5.70;3.33;;;14.60;79.70;;;;;;4995095;28;20029;-67
2022/10/13 08:30:52;;;;;;;5.82;2.78;;;14.70;79.80;;;;;;5009851;28;20481;-68
2022/10/13 08:33:19;;;;;;;4.30;2.90;;;14.70;79.80;;;;;;4990354;28;20033;-69
2022/10/13 08:35:45;;;;;;;4.68;3.75;;;14.80;79.70;;;;;;5009713;28;20032;-69
2022/10/13 08:38:11;;;;;;;5.75;3.45;;;14.80;79.50;;;;;;5015627;28;20034;-69
2022/10/13 08:40:38;;;;;;;6.72;4.32;;;14.90;79.30;;;;;;4993987;28;20069;-69
2022/10/13 08:43:07;;;;;;;14.60;3.90;;;14.90;79.80;;;;;;5009616;28;20501;-69
2022/10/13 08:45:34;;;;;;;6.25;3.28;;;15.00;79.30;;;;;;5011604;28;20018;-70
2022/10/13 08:48:02;;;;;;;6.78;3.95;;;15.00;79.10;;;;;;5010744;28;20029;-70
2022/10/13 08:50:41;;;;;;;7.10;4.32;;;15.00;79.10;;;;;;5010468;28;20061;-69
2022/10/13 08:53:18;;;;;;;15.88;3.53;;;15.10;79.10;;;;;;4984462;28;20040;-69
2022/10/13 08:55:48;;;;;;;9.85;5.15;;;15.00;79.00;;;;;;5009860;28;20083;-69
2022/10/13 08:58:20;;;;;;;5.00;3.97;;;15.00;79.30;;;;;;5010219;28;20032;-69
2022/10/13 09:00:46;;;;;;;13.65;4.45;;;14.90;79.30;;;;;;5009017;28;20476;-69
2022/10/13 09:03:20;;;;;;;7.53;3.53;;;14.90;79.40;;;;;;5012542;28;20038;-70
2022/10/13 09:06:13;;;;;;;9.15;2.88;;;14.90;79.40;;;;;;5017556;28;20033;-70
2022/10/13 09:08:47;;;;;;;7.25;5.28;;;14.90;79.30;;;;;;5008088;28;20045;-69
2022/10/13 09:11:13;;;;;;;10.43;4.53;;;14.90;79.40;;;;;;5008503;28;20104;-69
2022/10/13 09:13:39;;;;;;;6.15;4.22;;;14.90;79.60;;;;;;5009455;28;20053;-69
2022/10/13 09:16:05;;;;;;;7.60;4.63;;;14.90;79.50;;;;;;5010435;28;20204;-69
2022/10/13 09:18:32;;;;;;;7.45;4.57;;;15.00;79.30;;;;;;5009327;28;20034;-69
2022/10/13 09:21:19;;;;;;;6.80;4.53;;;15.20;79.30;;;;;;4992745;28;20030;-69
2022/10/13 09:23:45;;;;;;;9.93;4.60;;;15.40;79.00;;;;;;5007154;28;20486;-69
2022/10/13 09:26:19;;;;;;;7.28;4.03;;;15.60;78.50;;;;;;4991278;28;20044;-69
2022/10/13 09:28:45;;;;;;;6.85;4.15;;;15.80;78.00;;;;;;5008759;28;20584;-69
2022/10/13 09:31:31;;;;;;;6.82;3.85;;;16.00;77.50;;;;;;4991759;28;20121;-69
2022/10/13 09:34:12;;;;;;;15.13;4.47;;;16.20;76.80;;;;;;5008607;28;20038;-69
2022/10/13 09:36:38;;;;;;;5.68;3.97;;;16.30;76.40;;;;;;5004664;28;20424;-69
2022/10/13 09:39:14;;;;;;;8.90;4.72;;;16.50;76.20;;;;;;4991037;28;20124;-69
2022/10/13 09:41:42;;;;;;;7.25;4.45;;;16.60;75.90;;;;;;5003022;28;20128;-69
2022/10/13 09:44:18;;;;;;;9.27;5.30;;;16.50;75.80;;;;;;5005861;28;20080;-69
2022/10/13 09:46:54;;;;;;;7.20;3.83;;;16.50;75.90;;;;;;5008720;28;20040;-69
2022/10/13 09:49:36;;;;;;;4.95;3.33;;;16.50;76.10;;;;;;5008601;28;20064;-69
2022/10/13 09:52:06;;;;;;;5.45;3.40;;;16.60;76.10;;;;;;5008263;28;20033;-69
2022/10/13 09:54:37;;;;;;;4.93;3.47;;;16.60;75.90;;;;;;5010080;28;20109;-69
2022/10/13 09:57:10;;;;;;;6.13;3.23;;;16.60;75.80;;;;;;5010248;28;20036;-69
2022/10/13 09:59:41;;;;;;;4.95;3.00;;;16.60;75.70;;;;;;5007778;28;20445;-69
2022/10/13 10:02:50;;;;;;;11.20;3.95;;;16.60;75.70;;;;;;5011560;28;20034;-69
2022/10/13 10:05:21;;;;;;;3.33;2.42;;;16.70;75.80;;;;;;5007796;28;20050;-69
2022/10/13 10:07:47;;;;;;;7.93;4.25;;;16.70;75.90;;;;;;5008931;28;20026;-69
2022/10/13 10:10:28;;;;;;;4.13;3.22;;;16.70;75.80;;;;;;5011045;28;20475;-69
2022/10/13 10:12:54;;;;;;;7.97;3.65;;;16.70;75.70;;;;;;4990778;28;20018;-69
2022/10/13 10:15:25;;;;;;;5.78;3.13;;;16.70;75.80;;;;;;5007022;28;20462;-68
2022/10/13 10:17:57;;;;;;;3.95;2.50;;;16.70;75.70;;;;;;4988512;28;20596;-70
2022/10/13 10:20:32;;;;;;;6.50;2.30;;;16.80;75.50;;;;;;5009881;28;20518;-69
2022/10/13 10:23:28;;;;;;;4.30;3.08;;;16.80;75.40;;;;;;5011962;28;20050;-69
2022/10/13 10:26:11;;;;;;;12.75;2.95;;;16.80;75.90;;;;;;4998383;28;20030;-70
2022/10/13 10:29:04;;;;;;;4.40;3.22;;;16.80;75.30;;;;;;5002550;28;20030;-70
2022/10/13 10:31:41;;;;;;;12.73;2.47;;;16.80;75.40;;;;;;5008896;28;20037;-69
2022/10/13 10:34:33;;;;;;;6.00;2.80;;;16.80;75.40;;;;;;5008667;28;20091;-69
2022/10/13 10:37:47;;;;;;;10.05;3.00;;;16.80;75.40;;;;;;5008714;28;20463;-68
2022/10/13 10:40:47;;;;;;;3.92;3.45;;;16.80;75.30;;;;;;4990407;28;20049;-69
2022/10/13 10:43:25;;;;;;;3.42;2.28;;;16.70;75.50;;;;;;5008498;28;20025;-69
2022/10/13 10:45:53;;;;;;;6.28;3.95;;;16.70;75.80;;;;;;4989290;28;20030;-69
2022/10/13 10:48:22;;;;;;;4.13;3.13;;;16.70;75.80;;;;;;5005555;28;20030;-69
2022/10/13 10:50:51;;;;;;;4.70;2.42;;;16.60;75.90;;;;;;5007407;28;20485;-69
2022/10/13 10:53:38;;;;;;;5.93;2.92;;;16.60;76.00;;;;;;4993541;28;20048;-69
2022/10/13 10:56:28;;;;;;;3.75;2.70;;;16.60;76.00;;;;;;5009340;28;20036;-69
2022/10/13 10:59:01;;;;;;;5.13;2.80;;;16.60;76.10;;;;;;5010974;28;20031;-69
2022/10/13 11:01:38;;;;;;;5.50;2.75;;;16.70;76.70;;;;;;5010216;28;20037;-69
2022/10/13 11:04:22;;;;;;;7.15;3.50;;;16.70;76.00;;;;;;4992476;28;20045;-69
2022/10/13 11:06:47;;;;;;;3.78;2.45;;;16.70;75.90;;;;;;5003928;28;20466;-69
2022/10/13 11:09:13;;;;;;;8.95;3.45;;;16.70;75.90;;;;;;4992357;28;20030;-69
2022/10/13 11:11:41;;;;;;;5.10;2.95;;;16.70;75.90;;;;;;5005055;28;20501;-68
2022/10/13 11:14:06;;;;;;;6.43;2.97;;;16.60;75.90;;;;;;5011179;28;20491;-69
2022/10/13 11:16:36;;;;;;;3.67;2.45;;;16.60;76.00;;;;;;5004820;28;20117;-68
2022/10/13 11:19:24;;;;;;;5.47;2.67;;;16.60;76.30;;;;;;5008543;28;20397;-70
2022/10/13 11:21:52;;;;;;;6.57;3.42;;;16.40;76.60;;;;;;5006992;28;20030;-69
2022/10/13 11:24:37;;;;;;;6.07;2.50;;;16.30;77.00;;;;;;5006868;28;20042;-69
2022/10/13 11:27:15;;;;;;;6.60;3.63;;;16.20;77.40;;;;;;5011059;28;20105;-69
2022/10/13 11:29:50;;;;;;;6.20;2.40;;;16.10;77.80;;;;;;5010481;28;20500;-68
2022/10/13 11:35:12;;;;;;;3.95;3.33;;;16.00;78.70;;;;;;5010210;28;20077;-69
2022/10/13 11:37:40;;;;;;;4.55;3.17;;;16.00;79.00;;;;;;5010551;28;20042;-69
2022/10/13 11:40:28;;;;;;;3.95;3.38;;;15.90;79.20;;;;;;5011241;28;20044;-69
2022/10/13 11:43:06;;;;;;;6.32;3.20;;;15.90;79.10;;;;;;5007340;28;20030;-69
2022/10/13 11:45:34;;;;;;;6.38;3.53;;;15.80;79.20;;;;;;5010487;28;20038;-69
2022/10/13 11:48:46;;;;;;;5.47;3.60;;;15.70;79.50;;;;;;5010156;28;20033;-69
2022/10/13 11:51:24;;;;;;;8.43;3.80;;;15.70;79.80;;;;;;4954480;28;20031;-69
2022/10/13 11:54:13;;;;;;;6.10;4.07;;;15.60;79.90;;;;;;5002345;28;20038;-69
2022/10/13 11:56:52;;;;;;;4.78;3.50;;;15.60;80.10;;;;;;5010899;28;20780;-69
2022/10/13 11:59:32;;;;;;;7.80;4.53;;;15.60;80.40;;;;;;5011008;28;20037;-69
2022/10/13 12:02:15;;;;;;;11.65;4.45;;;15.60;80.70;;;;;;5010729;28;20026;-69
2022/10/13 12:04:42;;;;;;;4.22;2.83;;;15.60;80.60;;;;;;5006111;28;20026;-69
2022/10/13 12:07:14;;;;;;;4.78;3.75;;;15.60;80.60;;;;;;5007070;28;20026;-69
2022/10/13 12:09:52;;;;;;;3.70;2.65;;;15.60;80.50;;;;;;5005246;28;20056;-69
2022/10/13 12:12:20;;;;;;;6.25;3.58;;;15.60;80.40;;;;;;5001985;28;20464;-69
2022/10/13 12:14:50;;;;;;;7.97;4.10;;;15.60;80.60;;;;;;5007757;28;20038;-69
2022/10/13 12:17:22;;;;;;;6.28;4.20;;;15.60;80.50;;;;;;5008856;28;20088;-69
2022/10/13 12:19:48;;;;;;;6.80;3.47;;;15.60;80.60;;;;;;4987362;28;20042;-70
2022/10/13 12:22:14;;;;;;;5.38;3.45;;;15.50;80.50;;;;;;5013144;28;20032;-70
2022/10/13 12:24:41;;;;;;;4.47;2.92;;;15.60;80.60;;;;;;5007569;28;20485;-68
2022/10/13 12:30:29;;;;;;;3.92;3.00;;;15.60;80.70;;;;;;4993604;28;20033;-68
2022/10/13 12:32:58;;;;;;;4.30;2.97;;;15.60;80.70;;;;;;5010962;28;20033;-72
2022/10/13 12:35:29;;;;;;;9.55;3.45;;;15.70;80.70;;;;;;5013731;28;20030;-71
2022/10/13 12:37:56;;;;;;;5.20;3.50;;;15.70;80.70;;;;;;5010092;28;20026;-68
2022/10/13 12:40:23;;;;;;;6.40;3.63;;;15.70;80.60;;;;;;5009402;28;20681;-68
2022/10/13 12:42:49;;;;;;;5.95;3.30;;;15.80;80.60;;;;;;5011496;28;20040;-68
2022/10/13 12:45:20;;;;;;;5.35;2.67;;;15.80;80.70;;;;;;5003908;28;20045;-69
2022/10/13 12:47:47;;;;;;;6.63;4.53;;;15.80;80.70;;;;;;4999986;28;20033;-68
2022/10/13 12:50:29;;;;;;;5.50;4.25;;;15.80;81.00;;;;;;5005870;28;20034;-69
2022/10/13 12:53:10;;;;;;;3.97;3.35;;;15.80;81.70;;;;;;5008060;28;20458;-69
2022/10/13 12:55:48;;;;;;;5.85;3.97;;;15.80;81.20;;;;;;5012196;28;20026;-69
2022/10/13 12:58:27;;;;;;;10.20;4.28;;;15.80;81.10;;;;;;5009695;28;20596;-68
2022/10/13 13:01:03;;;;;;;4.75;3.70;;;15.80;81.20;;;;;;5006134;28;20618;-68
2022/10/13 13:03:29;;;;;;;8.45;5.32;;;15.80;81.20;;;;;;4994608;28;20041;-68
2022/10/13 13:06:14;;;;;;;6.68;4.90;;;15.70;81.20;;;;;;5009682;28;20065;-68
2022/10/13 13:08:41;;;;;;;9.85;4.25;;;15.70;81.40;;;;;;5009379;28;20113;-69
2022/10/13 13:11:23;;;;;;;6.47;4.32;;;15.70;81.80;;;;;;5009087;28;20099;-69
2022/10/13 13:13:49;;;;;;;;;;;15.70;81.70;;;;;;5008033;28;20061;-69